Time;durP1;ratioP1;P1;durP2;ratioP2;P2;SDS_P1;SDS_P2;PMS_P1;PMS_P2;Temp;Humidity;BMP_temperature;BMP_pressure;BME280_temperature;BME280_humidity;BME280_pressure;Samples;Min_cycle;Max_cycle;Signal;HPM_P1;HPM_P2
2023/10/18 00:00:49;;;;;;;;;2.00;2.00;;;;;21.95;44.67;101109.55;109866;1254;20844;-39
2023/10/18 00:03:36;;;;;;;;;2.00;2.00;;;;;21.96;44.82;101106.97;109941;1268;22661;-39
2023/10/18 00:06:11;;;;;;;;;4.00;2.00;;;;;21.96;44.60;101108.89;109913;1254;22181;-40
2023/10/18 00:08:37;;;;;;;;;2.00;2.00;;;;;21.96;44.77;101103.81;109930;1253;19877;-39
2023/10/18 00:11:03;;;;;;;;;2.00;2.00;;;;;21.96;44.57;101104.36;109902;1253;22913;-39
2023/10/18 00:13:31;;;;;;;;;2.00;2.00;;;;;21.95;44.73;101099.50;109930;1260;19299;-39
2023/10/18 00:15:59;;;;;;;;;2.00;2.00;;;;;21.95;44.74;101096.72;109804;1252;19723;-39
2023/10/18 00:18:25;;;;;;;;;2.00;2.00;;;;;21.96;44.54;101095.36;109870;1253;21112;-39
2023/10/18 00:20:51;;;;;;;;;1.00;1.00;;;;;21.97;44.57;101096.06;109824;1268;22091;-40
2023/10/18 00:23:17;;;;;;;;;2.00;2.00;;;;;21.96;44.70;101096.06;109601;1269;267133;-40
2023/10/18 00:25:43;;;;;;;;;2.00;2.00;;;;;21.97;44.71;101096.13;109878;1254;20944;-38
2023/10/18 00:28:09;;;;;;;;;;;;;;;21.97;44.54;101094.16;109910;1253;19180;-38
2023/10/18 00:30:36;;;;;;;;;4.00;4.00;;;;;21.97;44.61;101094.48;109904;1268;18328;-39
2023/10/18 00:33:06;;;;;;;;;2.00;2.00;;;;;21.98;44.57;101093.73;109950;1253;18498;-39
2023/10/18 00:35:32;;;;;;;;;2.00;2.00;;;;;21.97;44.57;101090.78;109947;1260;20521;-39
2023/10/18 00:37:58;;;;;;;;;2.00;2.00;;;;;21.95;44.43;101089.24;109926;1252;19558;-39
2023/10/18 00:40:33;;;;;;;;;2.00;2.00;;;;;21.94;44.60;101090.17;109928;1268;18775;-40
2023/10/18 00:43:03;;;;;;;;;1.67;1.67;;;;;21.94;44.57;101090.98;109932;1254;23451;-39
2023/10/18 00:45:29;;;;;;;;;1.00;1.00;;;;;21.94;44.36;101091.10;109938;1254;22210;-39
2023/10/18 00:47:57;;;;;;;;;2.00;2.00;;;;;21.93;44.54;101088.58;109917;1268;18742;-39
2023/10/18 00:50:27;;;;;;;;;2.00;2.00;;;;;21.92;44.71;101086.08;109934;1268;19397;-39
2023/10/18 00:52:53;;;;;;;;;2.00;2.00;;;;;21.91;44.77;101082.48;109939;1268;21417;-38
2023/10/18 00:55:19;;;;;;;;;2.00;2.00;;;;;21.93;44.55;101080.23;109915;1268;20575;-40
2023/10/18 00:57:47;;;;;;;;;2.00;2.00;;;;;21.93;44.43;101075.98;109944;1268;22767;-40
2023/10/18 01:00:19;;;;;;;;;2.00;2.00;;;;;21.93;44.34;101073.70;109965;1253;22897;-41
2023/10/18 01:02:50;;;;;;;;;2.00;2.00;;;;;21.92;44.35;101075.23;109923;1260;21626;-38
2023/10/18 01:05:16;;;;;;;;;2.00;2.00;;;;;21.93;44.36;101073.96;109938;1254;22247;-39
2023/10/18 01:07:42;;;;;;;;;2.00;2.00;;;;;21.94;44.35;101076.36;109934;1254;18367;-39
2023/10/18 01:10:09;;;;;;;;;2.00;2.00;;;;;21.93;44.31;101077.19;109943;1268;22082;-39
2023/10/18 01:12:36;;;;;;;;;2.00;2.00;;;;;21.94;44.50;101075.83;109925;1268;19844;-39
2023/10/18 01:15:06;;;;;;;;;2.00;2.00;;;;;21.93;44.30;101075.11;109894;1253;22620;-39
2023/10/18 01:17:34;;;;;;;;;1.50;1.50;;;;;21.93;44.34;101074.19;109933;1268;20655;-38
2023/10/18 01:20:12;;;;;;;;;2.00;2.00;;;;;21.93;44.42;101075.44;109950;1260;20831;-38
2023/10/18 01:22:38;;;;;;;;;4.00;2.00;;;;;21.94;44.58;101073.54;109903;1253;18498;-40
2023/10/18 01:25:09;;;;;;;;;2.00;2.00;;;;;21.96;44.17;101072.17;109874;1254;21614;-40
2023/10/18 01:27:35;;;;;;;;;4.00;2.00;;;;;21.93;44.29;101068.08;109969;1268;19556;-39
2023/10/18 01:30:02;;;;;;;;;1.00;1.00;;;;;21.92;44.28;101059.45;109914;1254;19543;-38
2023/10/18 01:32:28;;;;;;;;;2.00;2.00;;;;;21.92;44.49;101059.62;109961;1268;23138;-39
2023/10/18 01:34:55;;;;;;;;;4.00;2.00;;;;;21.92;44.32;101058.69;109949;1253;20475;-40
2023/10/18 01:37:22;;;;;;;;;2.00;2.00;;;;;21.92;44.18;101058.41;109963;1268;18439;-38
2023/10/18 01:39:52;;;;;;;;;2.00;2.00;;;;;21.91;44.22;101056.99;109926;1254;22226;-39
2023/10/18 01:42:18;;;;;;;;;1.00;1.00;;;;;21.91;44.42;101051.38;109941;1254;23470;-39
2023/10/18 01:44:45;;;;;;;;;2.00;2.00;;;;;21.90;44.16;101051.16;109939;1268;19922;-38
2023/10/18 01:47:12;;;;;;;;;2.00;2.00;;;;;21.91;44.20;101054.16;109944;1254;19961;-38
2023/10/18 01:49:43;;;;;;;;;4.33;2.67;;;;;21.92;44.28;101053.57;109957;1260;20699;-38
2023/10/18 01:52:12;;;;;;;;;2.00;1.00;;;;;21.91;44.44;101055.25;109888;1268;23024;-39
2023/10/18 01:54:38;;;;;;;;;2.00;2.00;;;;;21.90;44.24;101051.92;109901;1253;20194;-39
2023/10/18 01:57:06;;;;;;;;;4.00;3.00;;;;;21.89;44.35;101048.00;109946;1253;23521;-41
2023/10/18 01:59:34;;;;;;;;;2.00;2.00;;;;;21.90;44.53;101045.94;109920;1267;19955;-37
2023/10/18 02:02:00;;;;;;;;;4.00;4.00;;;;;21.90;44.44;101046.36;109921;1253;20157;-40
2023/10/18 02:04:26;;;;;;;;;4.00;2.00;;;;;21.90;44.35;101041.45;109914;1254;21627;-40
2023/10/18 02:06:56;;;;;;;;;2.00;2.00;;;;;21.90;44.39;101035.67;109919;1254;22370;-39
2023/10/18 02:09:23;;;;;;;;;2.00;2.00;;;;;21.90;44.41;101039.87;109924;1254;22107;-38
2023/10/18 02:11:49;;;;;;;;;2.00;2.00;;;;;21.89;44.37;101045.76;109956;1253;20928;-39
2023/10/18 02:14:15;;;;;;;;;1.00;1.00;;;;;21.89;44.41;101052.86;109943;1254;19683;-39
2023/10/18 02:16:45;;;;;;;;;;;;;;;21.89;44.14;101053.34;109874;1268;18713;-39
2023/10/18 02:19:11;;;;;;;;;1.00;1.00;;;;;21.89;44.14;101050.02;109944;1253;20731;-39
2023/10/18 02:21:40;;;;;;;;;3.00;3.00;;;;;21.89;44.33;101046.52;109950;1252;19051;-39
2023/10/18 02:24:07;;;;;;;;;2.00;2.00;;;;;21.91;44.21;101046.58;109945;1268;18699;-39
2023/10/18 02:26:33;;;;;;;;;2.00;2.00;;;;;21.90;44.41;101037.04;109929;1268;19441;-40
2023/10/18 02:28:59;;;;;;;;;1.00;1.00;;;;;21.89;44.16;101036.77;110053;1260;19554;-41
2023/10/18 02:31:25;;;;;;;;;4.50;4.00;;;;;21.88;44.17;101038.07;109962;1268;18390;-40
2023/10/18 02:33:53;;;;;;;;;4.00;2.00;;;;;21.89;44.24;101035.73;109928;1260;20573;-41
2023/10/18 02:36:21;;;;;;;;;2.00;2.00;;;;;21.90;44.15;101031.80;109998;1254;19624;-38
2023/10/18 02:38:49;;;;;;;;;2.00;2.00;;;;;21.89;44.29;101029.02;109940;1254;20061;-39
2023/10/18 02:41:15;;;;;;;;;1.00;1.00;;;;;21.88;44.12;101023.23;109924;1268;22779;-40
2023/10/18 02:43:45;;;;;;;;;2.00;2.00;;;;;21.90;44.21;101025.85;109916;1254;19600;-39
2023/10/18 02:46:11;;;;;;;;;2.00;2.00;;;;;21.90;44.27;101020.55;109896;1268;18925;-39
2023/10/18 02:48:40;;;;;;;;;2.00;2.00;;;;;21.90;44.36;101015.21;109848;1254;21793;-39
2023/10/18 02:51:06;;;;;;;;;2.00;2.00;;;;;21.88;44.05;101014.07;109897;1268;22155;-39
2023/10/18 02:53:33;;;;;;;;;1.00;1.00;;;;;21.89;44.38;101018.11;109926;1252;20113;-39
2023/10/18 02:55:59;;;;;;;;;2.00;2.00;;;;;21.89;44.07;101013.58;109953;1268;22614;-40
2023/10/18 02:58:28;;;;;;;;;2.00;2.00;;;;;21.90;44.39;101013.41;109941;1268;19809;-39
2023/10/18 03:00:54;;;;;;;;;2.00;2.00;;;;;21.92;44.28;101016.58;109968;1252;20015;-39
2023/10/18 03:03:22;;;;;;;;;2.00;2.00;;;;;21.90;44.17;101013.69;109902;1253;21652;-40
2023/10/18 03:05:48;;;;;;;;;2.00;2.00;;;;;21.90;43.95;101015.23;109989;1267;18734;-39
2023/10/18 03:08:15;;;;;;;;;2.00;2.00;;;;;21.91;44.05;101010.73;109886;1254;20094;-38
2023/10/18 03:10:44;;;;;;;;;4.00;2.00;;;;;21.89;44.04;101008.34;109916;1253;21929;-39
2023/10/18 03:13:11;;;;;;;;;4.00;2.00;;;;;21.88;44.15;101008.99;109969;1252;20908;-40
2023/10/18 03:15:49;;;;;;;;;2.00;2.00;;;;;21.88;44.22;101010.52;109916;1267;19978;-38
2023/10/18 03:18:18;;;;;;;;;2.00;2.00;;;;;21.88;44.26;101011.17;109925;1267;22750;-38
2023/10/18 03:20:44;;;;;;;;;2.00;2.00;;;;;21.88;44.33;101005.67;109932;1253;22277;-39
2023/10/18 03:23:13;;;;;;;;;4.00;2.00;;;;;21.87;44.24;101001.04;109927;1268;18543;-39
2023/10/18 03:25:39;;;;;;;;;4.00;2.00;;;;;21.88;44.12;100997.42;109918;1254;21716;-39
2023/10/18 03:28:05;;;;;;;;;2.00;2.00;;;;;21.88;44.30;100994.70;109945;1268;19656;-39
2023/10/18 03:30:41;;;;;;;;;2.00;2.00;;;;;21.88;44.19;100998.25;109955;1268;22802;-38
2023/10/18 03:33:07;;;;;;;;;2.00;2.00;;;;;21.87;44.09;100997.65;109923;1260;20748;-38
2023/10/18 03:35:39;;;;;;;;;2.00;2.00;;;;;21.86;44.30;100998.80;109904;1254;19684;-38
2023/10/18 03:38:15;;;;;;;;;2.00;2.00;;;;;21.87;44.14;100995.91;109962;1268;22286;-37
2023/10/18 03:40:46;;;;;;;;;2.00;2.00;;;;;21.88;44.23;100993.06;109954;1268;22160;-40
2023/10/18 03:43:12;;;;;;;;;2.00;2.00;;;;;21.87;44.16;100985.91;109927;1268;22277;-38
2023/10/18 03:46:07;;;;;;;;;1.00;1.00;;;;;21.86;44.24;100984.73;109904;1268;23272;-39
2023/10/18 03:48:39;;;;;;;;;4.00;4.00;;;;;21.86;44.06;100982.00;109802;1253;20600;-39
2023/10/18 03:51:05;;;;;;;;;3.00;3.00;;;;;21.87;43.98;100987.34;109954;1254;19706;-39
2023/10/18 03:53:31;;;;;;;;;2.00;2.00;;;;;21.86;44.09;100985.10;109960;1268;18993;-39
2023/10/18 03:55:58;;;;;;;;;2.00;2.00;;;;;21.86;44.13;100983.36;109915;1254;22488;-40
2023/10/18 03:58:26;;;;;;;;;2.00;2.00;;;;;21.87;44.22;100978.98;109940;1254;19689;-40
2023/10/18 04:00:54;;;;;;;;;2.00;2.00;;;;;21.85;44.24;100979.21;109928;1268;19971;-38
2023/10/18 04:03:20;;;;;;;;;2.00;2.00;;;;;21.84;44.07;100977.36;109936;1268;19424;-39
2023/10/18 04:05:49;;;;;;;;;2.00;2.00;;;;;21.84;44.21;100973.81;109938;1252;19673;-38
2023/10/18 04:08:16;;;;;;;;;2.00;2.00;;;;;21.84;44.13;100974.58;109933;1268;22752;-38
2023/10/18 04:10:42;;;;;;;;;4.00;2.00;;;;;21.85;44.17;100971.02;110018;1253;19344;-39
2023/10/18 04:13:11;;;;;;;;;2.00;2.00;;;;;21.85;44.18;100969.07;109921;1254;19363;-38
2023/10/18 04:15:37;;;;;;;;;4.00;2.00;;;;;21.85;43.97;100963.83;109986;1253;22245;-40
2023/10/18 04:18:11;;;;;;;;;3.00;2.00;;;;;21.86;43.99;100961.54;109954;1268;19415;-40
2023/10/18 04:20:37;;;;;;;;;4.00;4.00;;;;;21.86;44.04;100964.54;109957;1254;23994;-39
2023/10/18 04:23:12;;;;;;;;;4.00;4.00;;;;;21.85;44.20;100960.89;109933;1261;18997;-39
2023/10/18 04:25:38;;;;;;;;;5.00;4.00;;;;;21.85;44.03;100961.11;109912;1254;20775;-40
2023/10/18 04:28:06;;;;;;;;;4.00;4.00;;;;;21.84;44.25;100965.41;109901;1268;19709;-38
2023/10/18 04:30:32;;;;;;;;;2.00;2.00;;;;;21.83;43.97;100969.55;109906;1253;23932;-41
2023/10/18 04:33:00;;;;;;;;;4.00;4.00;;;;;21.84;43.85;100970.38;109870;1268;21493;-41
2023/10/18 04:35:29;;;;;;;;;2.00;2.00;;;;;21.84;44.03;100971.35;109923;1268;19784;-39
2023/10/18 04:37:55;;;;;;;;;4.00;4.00;;;;;21.84;44.04;100969.51;109959;1268;21564;-39
2023/10/18 04:40:25;;;;;;;;;2.00;2.00;;;;;21.85;43.90;100966.07;109940;1254;20517;-39
2023/10/18 04:42:51;;;;;;;;;2.00;2.00;;;;;21.85;44.29;100964.05;109961;1268;18539;-39
2023/10/18 04:45:18;;;;;;;;;2.00;2.00;;;;;21.86;44.16;100965.41;109935;1253;19809;-38
2023/10/18 04:47:49;;;;;;;;;2.00;2.00;;;;;21.86;43.98;100964.60;109975;1254;20760;-39
2023/10/18 04:50:18;;;;;;;;;2.00;2.00;;;;;21.85;44.20;100968.52;109975;1253;22187;-39
2023/10/18 04:52:47;;;;;;;;;2.00;2.00;;;;;21.84;43.94;100968.09;109962;1254;21218;-38
2023/10/18 04:55:14;;;;;;;;;2.00;2.00;;;;;21.85;43.89;100965.84;109960;1268;19404;-38
2023/10/18 04:57:41;;;;;;;;;2.00;2.00;;;;;21.83;43.86;100966.06;109505;1268;20294;-38
2023/10/18 05:00:35;;;;;;;;;2.00;2.00;;;;;21.85;43.90;100968.48;109883;1253;20251;-39
2023/10/18 05:03:06;;;;;;;;;4.00;4.00;;;;;21.88;44.00;100968.04;109921;1252;21954;-38
2023/10/18 05:05:37;;;;;;;;;4.00;4.00;;;;;21.85;44.02;100967.38;109957;1260;19851;-38
2023/10/18 05:08:04;;;;;;;;;4.00;4.00;;;;;21.86;43.81;100960.79;109893;1254;22222;-40
2023/10/18 05:10:30;;;;;;;;;2.00;2.00;;;;;21.88;44.00;100956.63;109954;1268;19589;-38
2023/10/18 05:13:01;;;;;;;;;2.00;2.00;;;;;21.90;44.06;100958.00;109892;1268;18173;-37
2023/10/18 05:15:31;;;;;;;;;5.00;4.00;;;;;21.89;45.47;100959.36;109935;1253;20057;-39
2023/10/18 05:18:15;;;;;;;;;4.00;4.00;;;;;21.94;46.00;100961.33;109883;1254;20790;-39
2023/10/18 05:20:47;;;;;;;;;2.00;2.00;;;;;21.95;46.48;100960.57;109912;1268;18483;-37
2023/10/18 05:23:21;;;;;;;;;4.00;4.00;;;;;21.95;46.28;100962.14;109745;1268;20103;-38
2023/10/18 05:25:48;;;;;;;;;4.00;4.00;;;;;21.92;45.98;100954.35;109577;1269;21416;-41
2023/10/18 05:28:24;;;;;;;;;4.00;4.00;;;;;21.96;46.07;100952.16;109757;1252;19665;-39
2023/10/18 05:33:54;;;;;;;;;4.00;4.00;;;;;21.92;46.58;100948.78;109851;1268;20883;-39
2023/10/18 05:36:35;;;;;;;;;4.00;4.00;;;;;21.96;46.37;100948.23;109813;1253;22851;-40
2023/10/18 05:39:27;;;;;;;;;4.00;4.00;;;;;21.93;46.67;100949.05;109880;1260;20142;-39
2023/10/18 05:41:59;;;;;;;;;3.00;3.00;;;;;21.98;46.43;100947.02;109835;1268;19462;-39
2023/10/18 05:44:27;;;;;;;;;4.00;4.00;;;;;21.96;46.71;100947.47;109522;1260;23822;-39
2023/10/18 05:46:53;;;;;;;;;4.00;4.00;;;;;21.93;46.52;100942.67;109529;1254;22707;-40
2023/10/18 05:49:23;;;;;;;;;4.00;4.00;;;;;21.92;46.37;100944.80;109536;1268;20333;-40
2023/10/18 05:51:52;;;;;;;;;4.00;4.00;;;;;21.94;46.54;100948.73;109525;1264;20935;-39
2023/10/18 05:54:19;;;;;;;;;4.00;4.00;;;;;21.93;46.39;100949.76;109723;1253;20248;-40
2023/10/18 05:56:49;;;;;;;;;6.00;5.00;;;;;21.97;46.06;100955.66;109935;1254;19370;-39
2023/10/18 05:59:28;;;;;;;;;;;;;;;22.00;46.49;100957.84;109959;1253;19990;-38
2023/10/18 06:01:54;;;;;;;;;4.00;4.00;;;;;22.01;46.17;100954.20;109896;1268;19867;-39
2023/10/18 06:04:24;;;;;;;;;5.67;5.33;;;;;22.05;46.53;100952.41;109872;1252;22017;-39
2023/10/18 06:06:50;;;;;;;;;5.00;5.00;;;;;22.11;46.11;100958.29;109920;1264;18875;-38
2023/10/18 06:09:26;;;;;;;;;5.00;4.00;;;;;22.18;45.97;100955.94;109928;1268;18646;-39
2023/10/18 06:11:53;;;;;;;;;5.00;4.00;;;;;22.22;46.00;100953.98;109956;1254;20796;-39
2023/10/18 06:14:19;;;;;;;;;2.00;2.00;;;;;22.17;45.98;100954.52;109890;1252;22223;-39
2023/10/18 06:16:51;;;;;;;;;5.00;4.00;;;;;22.10;46.23;100956.17;109885;1254;23373;-40
2023/10/18 06:19:22;;;;;;;;;4.00;2.00;;;;;22.06;46.19;100954.92;109892;1253;21902;-38
2023/10/18 06:21:57;;;;;;;;;4.67;4.67;;;;;22.04;46.42;100950.02;109929;1260;22861;-41
2023/10/18 06:24:24;;;;;;;;;2.00;2.00;;;;;22.02;46.18;100950.92;109894;1254;20344;-38
2023/10/18 06:26:52;;;;;;;;;3.00;2.00;;;;;22.01;46.14;100948.56;109845;1254;20903;-38
2023/10/18 06:29:22;;;;;;;;;4.00;4.00;;;;;22.02;46.15;100950.38;109896;1254;20853;-39
2023/10/18 06:31:49;;;;;;;;;4.00;4.00;;;;;22.00;46.16;100944.96;109901;1268;18683;-39
2023/10/18 06:34:17;;;;;;;;;2.00;2.00;;;;;21.96;46.17;100951.23;109913;1254;20701;-41
2023/10/18 06:36:43;;;;;;;;;2.00;2.00;;;;;21.95;46.26;100947.47;109893;1268;19600;-39
2023/10/18 06:39:16;;;;;;;;;4.00;2.00;;;;;21.92;46.24;100947.64;109882;1268;21294;-40
2023/10/18 06:41:43;;;;;;;;;2.00;2.00;;;;;21.91;46.18;100947.69;109928;1253;22404;-41
2023/10/18 06:44:11;;;;;;;;;2.00;2.00;;;;;21.91;46.01;100945.61;109951;1268;19909;-39
2023/10/18 06:46:38;;;;;;;;;4.00;4.00;;;;;21.92;45.74;100950.25;109931;1260;20063;-38
2023/10/18 06:49:10;;;;;;;;;5.00;5.00;;;;;21.90;45.30;100949.05;109637;1254;22734;-39
2023/10/18 06:51:40;;;;;;;;;5.00;4.00;;;;;21.87;44.68;100941.42;109554;1260;18678;-40
2023/10/18 06:54:12;;;;;;;;;4.00;4.00;;;;;21.89;44.14;100943.11;109840;1253;21434;-40
2023/10/18 06:56:39;;;;;;;;;4.00;4.00;;;;;21.83;43.11;100945.40;109967;1261;20749;-38
2023/10/18 06:59:07;;;;;;;;;7.00;7.00;;;;;21.77;42.65;100940.81;109919;1268;19643;-40
2023/10/18 07:01:33;;;;;;;;;5.00;5.00;;;;;21.76;42.16;100939.34;109587;1253;22172;-38
2023/10/18 07:04:00;;;;;;;;;7.50;7.50;;;;;21.75;41.63;100941.48;109776;1254;20751;-40
2023/10/18 07:06:29;;;;;;;;;7.50;6.00;;;;;21.74;40.96;100941.52;109886;1252;18502;-39
2023/10/18 07:08:55;;;;;;;;;8.00;7.00;;;;;21.74;41.19;100942.94;109905;1267;18856;-39
2023/10/18 07:11:22;;;;;;;;;5.00;5.00;;;;;21.75;41.54;100945.83;109882;1253;20789;-40
2023/10/18 07:13:50;;;;;;;;;8.00;8.00;;;;;21.79;42.29;100947.41;109421;1269;18546;-39
2023/10/18 07:16:18;;;;;;;;;8.00;7.00;;;;;21.77;41.87;100949.05;109734;1268;18808;-39
2023/10/18 07:18:44;;;;;;;;;10.50;8.00;;;;;21.74;41.22;100946.70;109574;1268;19663;-38
2023/10/18 07:21:10;;;;;;;;;5.00;5.00;;;;;21.74;40.95;100949.54;109579;1268;18590;-37
2023/10/18 07:23:36;;;;;;;;;7.00;7.00;;;;;21.80;40.81;100948.06;109827;1268;18516;-37
2023/10/18 07:26:03;;;;;;;;;8.50;8.00;;;;;21.83;40.90;100942.84;109855;1253;20801;-37
2023/10/18 07:28:29;;;;;;;;;6.00;5.00;;;;;21.84;40.90;100941.58;109823;1254;20909;-36
2023/10/18 07:30:55;;;;;;;;;5.00;5.00;;;;;21.86;40.95;100940.60;109775;1268;20197;-36
2023/10/18 07:33:23;;;;;;;;;5.00;4.00;;;;;21.87;40.56;100939.83;109847;1252;23785;-37
2023/10/18 07:35:49;;;;;;;;;5.00;5.00;;;;;21.86;40.31;100933.29;109819;1254;19622;-39
2023/10/18 07:38:25;;;;;;;;;5.00;4.00;;;;;21.87;40.37;100927.23;109677;1254;19783;-37
2023/10/18 07:40:54;;;;;;;;;6.00;6.00;;;;;21.83;40.45;100922.16;109492;1253;23358;-37
2023/10/18 07:43:20;;;;;;;;;5.00;5.00;;;;;21.87;40.56;100920.20;109494;1253;18532;-37
2023/10/18 07:45:46;;;;;;;;;4.50;4.00;;;;;21.84;40.84;100919.16;109505;1253;21584;-38
2023/10/18 07:48:16;;;;;;;;;5.00;4.00;;;;;21.89;41.05;100921.95;109522;1254;20502;-37
2023/10/18 07:50:42;;;;;;;;;4.00;4.00;;;;;21.94;41.08;100923.48;109831;1254;19595;-38
2023/10/18 07:53:11;;;;;;;;;5.00;4.00;;;;;21.95;41.16;100921.99;109766;1253;19823;-38
2023/10/18 07:55:37;;;;;;;;;5.00;5.00;;;;;21.92;41.47;100926.68;109822;1253;22169;-37
2023/10/18 07:58:06;;;;;;;;;4.00;4.00;;;;;21.92;41.60;100925.77;109610;1253;20872;-37
2023/10/18 08:00:35;;;;;;;;;2.00;2.00;;;;;21.90;41.78;100929.37;109936;1253;20905;-37
2023/10/18 08:03:05;;;;;;;;;4.00;4.00;;;;;21.90;41.93;100930.67;109542;1264;21051;-38
2023/10/18 08:05:31;;;;;;;;;4.00;4.00;;;;;21.92;41.89;100933.51;109474;1269;19815;-37
2023/10/18 08:07:57;;;;;;;;;5.00;4.00;;;;;21.90;42.05;100930.06;109590;1253;20245;-37
2023/10/18 08:10:23;;;;;;;;;4.00;4.00;;;;;21.90;42.29;100924.55;109551;1263;20472;-37
2023/10/18 08:13:03;;;;;;;;;2.00;2.00;;;;;21.87;42.20;100925.87;109569;1254;23463;-37
2023/10/18 08:15:34;;;;;;;;;4.00;4.00;;;;;21.86;42.37;100923.70;109526;1254;21136;-37
2023/10/18 08:18:00;;;;;;;;;4.00;4.00;;;;;21.86;42.47;100919.10;109511;1263;23384;-37
2023/10/18 08:20:55;;;;;;;;;2.00;2.00;;;;;-68.07;16.45;40365.30;107441;1269;1002119;-38
2023/10/18 08:23:34;;;;;;;;;4.00;4.00;;;;;-128.00;-1.00;-1.00;106407;1254;1006581;-38
2023/10/18 08:26:03;;;;;;;;;3.33;2.00;;;;;-128.00;-1.00;-1.00;106393;1260;1006802;-38
2023/10/18 08:28:38;;;;;;;;;1.25;1.25;;;;;-128.00;-1.00;-1.00;106404;1260;1006239;-37
2023/10/18 08:31:04;;;;;;;;;4.00;4.00;;;;;-128.00;-1.00;-1.00;106188;1260;1006762;-39
2023/10/18 08:33:30;;;;;;;;;2.00;2.00;;;;;-128.00;-1.00;-1.00;105957;1268;1002796;-38
2023/10/18 08:35:58;;;;;;;;;2.00;2.00;;;;;-128.00;-1.00;-1.00;106021;1269;1002824;-38
2023/10/18 08:38:26;;;;;;;;;2.00;2.00;;;;;-128.00;-1.00;-1.00;106050;1261;1008306;-38
2023/10/18 08:41:05;;;;;;;;;2.00;2.00;;;;;-128.00;-1.00;-1.00;106033;1253;1002955;-38
2023/10/18 08:43:31;;;;;;;;;4.00;4.00;;;;;-128.00;-1.00;-1.00;106028;1260;1006942;-37
2023/10/18 08:45:57;;;;;;;;;2.00;2.00;;;;;-128.00;-1.00;-1.00;106021;1269;1004634;-37
2023/10/18 08:48:28;;;;;;;;;2.00;2.00;;;;;-128.00;-1.00;-1.00;105996;1269;1002322;-37
2023/10/18 08:50:54;;;;;;;;;3.00;2.00;;;;;-128.00;-1.00;-1.00;106049;1260;1005688;-37
2023/10/18 08:53:22;;;;;;;;;2.00;2.00;;;;;-128.00;-1.00;-1.00;106019;1269;1002582;-38
2023/10/18 08:55:51;;;;;;;;;1.00;1.00;;;;;-128.00;-1.00;-1.00;106064;1253;1007967;-38
2023/10/18 08:58:18;;;;;;;;;2.00;2.00;;;;;-128.00;-1.00;-1.00;106035;1260;1006147;-38
2023/10/18 09:01:03;;;;;;;;;1.50;1.50;;;;;-128.00;-1.00;-1.00;106038;1253;1002833;-39
2023/10/18 09:03:29;;;;;;;;;2.00;2.00;;;;;-128.00;-1.00;-1.00;106003;1260;1007482;-37
2023/10/18 09:06:03;;;;;;;;;2.00;2.00;;;;;-128.00;-1.00;-1.00;106041;1253;1003465;-38
2023/10/18 09:08:28;;;;;;;;;1.00;1.00;;;;;-128.00;-1.00;-1.00;106019;1264;1007188;-38
2023/10/18 09:10:54;;;;;;;;;1.00;1.00;;;;;-128.00;-1.00;-1.00;106073;1264;1002507;-36
2023/10/18 09:13:41;;;;;;;;;2.00;2.00;;;;;-128.00;-1.00;-1.00;106157;1269;1003345;-38
2023/10/18 09:16:11;;;;;;;;;2.00;2.00;;;;;-128.00;-1.00;-1.00;106035;1260;1006760;-38
2023/10/18 09:18:37;;;;;;;;;2.00;2.00;;;;;-128.00;-1.00;-1.00;106113;1269;1011520;-38
2023/10/18 09:21:07;;;;;;;;;3.00;1.50;;;;;-128.00;-1.00;-1.00;106010;1269;1002619;-37
2023/10/18 09:23:34;;;;;;;;;1.00;1.00;;;;;-128.00;-1.00;-1.00;106418;1260;1006333;-37
2023/10/18 09:26:05;;;;;;;;;1.00;1.00;;;;;-128.00;-1.00;-1.00;106421;1268;1003374;-38
2023/10/18 09:28:32;;;;;;;;;2.00;2.00;;;;;-128.00;-1.00;-1.00;106401;1252;1005657;-37
2023/10/18 09:31:00;;;;;;;;;1.00;1.00;;;;;-128.00;-1.00;-1.00;106306;1268;1005057;-38
2023/10/18 09:33:26;;;;;;;;;4.00;2.00;;;;;-128.00;-1.00;-1.00;106369;1260;1004433;-38
2023/10/18 09:35:56;;;;;;;;;2.00;2.00;;;;;-128.00;-1.00;-1.00;106402;1253;1002249;-38
2023/10/18 09:38:23;;;;;;;;;2.00;1.00;;;;;-128.00;-1.00;-1.00;106414;1260;1006105;-39
2023/10/18 09:40:49;;;;;;;;;2.00;1.00;;;;;-128.00;-1.00;-1.00;106392;1254;1002767;-38
2023/10/18 09:43:14;;;;;;;;;1.00;1.00;;;;;-128.00;-1.00;-1.00;106385;1268;1003296;-39
2023/10/18 09:45:41;;;;;;;;;2.00;2.00;;;;;-128.00;-1.00;-1.00;106382;1268;1002558;-38
2023/10/18 09:48:08;;;;;;;;;2.00;2.00;;;;;-128.00;-1.00;-1.00;106393;1254;1002324;-37
2023/10/18 09:50:36;;;;;;;;;3.00;2.00;;;;;-128.00;-1.00;-1.00;106418;1254;1002573;-40
2023/10/18 09:53:02;;;;;;;;;2.00;1.50;;;;;-128.00;-1.00;-1.00;106423;1260;1002849;-38
2023/10/18 09:55:28;;;;;;;;;1.00;1.00;;;;;-128.00;-1.00;-1.00;106413;1268;1002130;-37
2023/10/18 09:57:59;;;;;;;;;2.00;2.00;;;;;-128.00;-1.00;-1.00;106387;1253;1002307;-37
2023/10/18 10:00:27;;;;;;;;;2.00;2.00;;;;;-128.00;-1.00;-1.00;106408;1260;1006269;-37
2023/10/18 10:02:56;;;;;;;;;2.00;2.00;;;;;-128.00;-1.00;-1.00;106445;1260;1002827;-38
2023/10/18 10:05:25;;;;;;;;;4.00;4.00;;;;;-128.00;-1.00;-1.00;106485;1268;1007497;-37
2023/10/18 10:07:51;;;;;;;;;2.00;2.00;;;;;-128.00;-1.00;-1.00;106417;1259;1006726;-38
2023/10/18 10:10:19;;;;;;;;;4.00;4.00;;;;;-128.00;-1.00;-1.00;106395;1268;1004171;-38
2023/10/18 10:12:45;;;;;;;;;5.00;5.00;;;;;-128.00;-1.00;-1.00;106412;1260;1003259;-38
2023/10/18 10:15:13;;;;;;;;;5.00;5.00;;;;;-128.00;-1.00;-1.00;106388;1252;1002478;-37
2023/10/18 10:17:41;;;;;;;;;5.00;5.00;;;;;-128.00;-1.00;-1.00;106385;1268;1008608;-37
2023/10/18 10:20:10;;;;;;;;;7.00;5.00;;;;;-128.00;-1.00;-1.00;106424;1260;1006984;-37
2023/10/18 10:22:37;;;;;;;;;5.50;4.50;;;;;-128.00;-1.00;-1.00;106368;1260;1007007;-37
2023/10/18 10:25:04;;;;;;;;;5.00;5.00;;;;;-128.00;-1.00;-1.00;106453;1260;1002594;-39
2023/10/18 10:27:49;;;;;;;;;7.00;5.00;;;;;-128.00;-1.00;-1.00;106384;1254;1003199;-37
2023/10/18 10:30:26;;;;;;;;;5.00;5.00;;;;;-128.00;-1.00;-1.00;106455;1260;1006234;-38
2023/10/18 10:32:52;;;;;;;;;5.00;4.00;;;;;-128.00;-1.00;-1.00;106392;1252;1007398;-37
2023/10/18 10:35:20;;;;;;;;;4.00;4.00;;;;;-128.00;-1.00;-1.00;106457;1253;1002840;-37
2023/10/18 10:37:46;;;;;;;;;5.00;5.00;;;;;-128.00;-1.00;-1.00;106443;1260;1003439;-38
2023/10/18 10:40:19;;;;;;;;;7.00;5.00;;;;;-128.00;-1.00;-1.00;106398;1252;1003084;-38
2023/10/18 10:42:47;;;;;;;;;6.33;5.00;;;;;-128.00;-1.00;-1.00;106368;1260;1006285;-38
2023/10/18 10:45:23;;;;;;;;;6.00;5.00;;;;;-128.00;-1.00;-1.00;106418;1259;1006112;-38
2023/10/18 10:47:50;;;;;;;;;8.00;7.00;;;;;-128.00;-1.00;-1.00;106393;1260;1007720;-38
2023/10/18 10:50:16;;;;;;;;;7.00;7.00;;;;;-128.00;-1.00;-1.00;106409;1253;1002329;-38
2023/10/18 10:52:44;;;;;;;;;5.00;5.00;;;;;-128.00;-1.00;-1.00;106398;1268;1002709;-38
2023/10/18 10:55:13;;;;;;;;;7.00;7.00;;;;;-128.00;-1.00;-1.00;106420;1260;1007361;-38
2023/10/18 10:57:43;;;;;;;;;5.00;5.00;;;;;-128.00;-1.00;-1.00;106397;1260;1006703;-38
2023/10/18 11:00:22;;;;;;;;;7.50;7.00;;;;;-128.00;-1.00;-1.00;106384;1260;1005874;-38
2023/10/18 11:02:53;;;;;;;;;8.00;8.00;;;;;-128.00;-1.00;-1.00;106407;1260;1006818;-37
2023/10/18 11:05:21;;;;;;;;;7.00;7.00;;;;;-128.00;-1.00;-1.00;106436;1261;1006581;-37
2023/10/18 11:07:47;;;;;;;;;7.00;7.00;;;;;-128.00;-1.00;-1.00;106400;1260;1002026;-37
2023/10/18 11:10:15;;;;;;;;;8.00;7.00;;;;;-128.00;-1.00;-1.00;106397;1252;1002338;-37
2023/10/18 11:12:41;;;;;;;;;6.50;6.00;;;;;-128.00;-1.00;-1.00;106424;1253;1002579;-37
2023/10/18 11:15:15;;;;;;;;;5.00;5.00;;;;;-128.00;-1.00;-1.00;106404;1268;1002771;-37
2023/10/18 11:17:44;;;;;;;;;8.00;8.00;;;;;-128.00;-1.00;-1.00;106324;1260;1007264;-38
2023/10/18 11:20:18;;;;;;;;;4.00;4.00;;;;;-128.00;-1.00;-1.00;106365;1253;1006091;-38
2023/10/18 11:22:44;;;;;;;;;6.00;6.00;;;;;-128.00;-1.00;-1.00;106411;1253;1005853;-39
2023/10/18 11:25:19;;;;;;;;;4.75;4.00;;;;;-128.00;-1.00;-1.00;106329;1252;1007297;-39
2023/10/18 11:27:45;;;;;;;;;5.00;5.00;;;;;-128.00;-1.00;-1.00;106330;1252;1006348;-39